Time;durP1;ratioP1;P1;durP2;ratioP2;P2;SDS_P1;SDS_P2;PMS_P1;PMS_P2;Temp;Humidity;BMP_temperature;BMP_pressure;BME280_temperature;BME280_humidity;BME280_pressure;Samples;Min_cycle;Max_cycle;Signal;HPM_P1;HPM_P2
2023/01/17 00:02:20;;;;;;;2.60;2.30;;;7.50;99.90;;;;;;4972795;28;20470;-73
2023/01/17 00:10:23;;;;;;;3.17;1.85;;;7.50;99.90;;;;;;4973605;28;20471;-73
2023/01/17 00:12:56;;;;;;;2.30;2.10;;;7.50;99.90;;;;;;4959015;28;20195;-73
2023/01/17 00:15:23;;;;;;;4.00;2.43;;;7.50;99.90;;;;;;4975883;28;20442;-73
2023/01/17 00:17:52;;;;;;;2.30;1.73;;;7.40;99.90;;;;;;4944208;28;20415;-73
2023/01/17 00:26:11;;;;;;;2.80;1.80;;;7.40;99.90;;;;;;4990536;28;20187;-73
2023/01/17 01:36:06;;;;;;;2.75;1.25;;;7.30;99.90;;;;;;4974486;28;20404;-73
2023/01/17 01:38:32;;;;;;;5.50;1.80;;;7.30;99.90;;;;;;4974532;28;20662;-73
2023/01/17 01:41:01;;;;;;;3.03;1.83;;;7.30;99.90;;;;;;4990713;28;20458;-73
2023/01/17 01:43:57;;;;;;;2.97;1.40;;;7.30;99.90;;;;;;4973345;28;20618;-73
2023/01/17 01:46:52;;;;;;;1.80;1.50;;;7.30;99.90;;;;;;4946888;29;20220;-73
2023/01/17 01:49:23;;;;;;;2.80;1.87;;;7.30;99.90;;;;;;4947834;28;20585;-73
2023/01/17 01:51:58;;;;;;;2.00;1.90;;;7.30;99.90;;;;;;4923639;29;20441;-73
2023/01/17 01:54:33;;;;;;;1.85;1.50;;;7.30;99.90;;;;;;4939022;29;20216;-73
2023/01/17 01:57:02;;;;;;;3.88;1.90;;;7.30;99.90;;;;;;4955012;29;20176;-73
2023/01/17 01:59:32;;;;;;;2.53;1.60;;;7.30;99.90;;;;;;4970501;28;20663;-73
2023/01/17 02:01:58;;;;;;;3.45;2.10;;;7.30;99.90;;;;;;4968682;28;20180;-73
2023/01/17 02:04:27;;;;;;;3.00;1.97;;;7.30;99.90;;;;;;4975064;28;20695;-73
2023/01/17 02:07:01;;;;;;;1.95;1.75;;;7.30;99.90;;;;;;4973966;28;20495;-73
2023/01/17 02:09:27;;;;;;;2.67;1.58;;;7.30;99.90;;;;;;4974997;28;20628;-73
2023/01/17 02:11:57;;;;;;;2.45;1.67;;;7.30;99.90;;;;;;4971656;28;20220;-73
2023/01/17 02:14:28;;;;;;;1.50;1.40;;;7.30;99.90;;;;;;4974844;28;20197;-73
2023/01/17 02:17:09;;;;;;;2.38;1.85;;;7.20;99.90;;;;;;4957917;28;20190;-73
2023/01/17 02:20:12;;;;;;;4.23;2.33;;;7.20;99.90;;;;;;4973747;28;20165;-73
2023/01/17 02:23:19;;;;;;;3.35;1.70;;;7.20;99.90;;;;;;4957761;28;20430;-73
2023/01/17 02:26:02;;;;;;;2.42;1.42;;;7.20;99.90;;;;;;4942627;28;20186;-73
2023/01/17 02:28:49;;;;;;;1.33;1.23;;;7.20;99.90;;;;;;4973695;28;20208;-73
2023/01/17 02:31:31;;;;;;;3.80;1.45;;;7.20;99.90;;;;;;4974927;28;20491;-73
2023/01/17 02:34:08;;;;;;;1.55;1.20;;;7.20;99.90;;;;;;4957570;28;20612;-74
2023/01/17 02:36:45;;;;;;;1.52;1.17;;;7.20;99.90;;;;;;4974552;28;20238;-73
2023/01/17 02:39:29;;;;;;;2.05;1.27;;;7.20;99.90;;;;;;4957548;28;20185;-73
2023/01/17 02:42:05;;;;;;;1.50;1.10;;;7.20;99.90;;;;;;4957175;28;20262;-73
2023/01/17 02:44:42;;;;;;;3.43;1.00;;;7.20;99.90;;;;;;4988464;28;20464;-73
2023/01/17 02:47:23;;;;;;;1.42;1.05;;;7.20;99.90;;;;;;4992811;28;20836;-73
2023/01/17 02:49:51;;;;;;;1.23;1.08;;;7.20;99.90;;;;;;4992635;28;20198;-73
2023/01/17 02:52:49;;;;;;;2.50;0.90;;;7.20;99.90;;;;;;4994190;28;20183;-73
2023/01/17 02:55:24;;;;;;;4.15;1.30;;;7.20;99.90;;;;;;4993185;28;20477;-73
2023/01/17 02:57:58;;;;;;;1.30;1.20;;;7.20;99.90;;;;;;4992619;28;20160;-73
2023/01/17 03:01:03;;;;;;;1.50;1.20;;;7.20;99.90;;;;;;4992666;28;20452;-73
2023/01/17 03:03:52;;;;;;;2.77;1.17;;;7.20;99.90;;;;;;4954788;28;20687;-73
2023/01/17 03:06:24;;;;;;;2.08;0.98;;;7.10;99.90;;;;;;4992580;28;20911;-73
2023/01/17 03:08:53;;;;;;;1.58;1.10;;;7.20;99.90;;;;;;4993593;28;20201;-73
2023/01/17 03:11:19;;;;;;;1.40;0.90;;;7.10;99.90;;;;;;4992587;28;20200;-74
2023/01/17 03:13:53;;;;;;;1.35;0.95;;;7.10;99.90;;;;;;4973065;28;20213;-73
2023/01/17 03:16:26;;;;;;;1.30;1.20;;;7.10;99.90;;;;;;4973028;28;20211;-73
2023/01/17 03:18:55;;;;;;;2.35;1.02;;;7.10;99.90;;;;;;4957043;28;20963;-73
2023/01/17 03:21:22;;;;;;;1.00;1.00;;;7.20;99.90;;;;;;4974146;28;20164;-73
2023/01/17 03:23:48;;;;;;;1.15;1.02;;;7.20;99.90;;;;;;4973020;28;20515;-73
2023/01/17 03:26:19;;;;;;;2.95;1.00;;;7.20;99.90;;;;;;4974090;28;20192;-73
2023/01/17 03:28:47;;;;;;;2.45;1.05;;;7.10;99.90;;;;;;4973189;28;20176;-73
2023/01/17 03:31:16;;;;;;;1.25;1.00;;;7.10;99.90;;;;;;4974033;28;20259;-73
2023/01/17 03:33:43;;;;;;;1.57;1.10;;;7.10;99.90;;;;;;4973658;28;20725;-73
2023/01/17 03:36:11;;;;;;;1.75;1.20;;;7.10;99.90;;;;;;4974075;28;20483;-73
2023/01/17 03:38:37;;;;;;;1.40;1.30;;;7.10;99.90;;;;;;4974087;28;20534;-73
2023/01/17 03:41:03;;;;;;;1.60;1.40;;;7.10;99.90;;;;;;4971566;28;20198;-73
2023/01/17 03:43:29;;;;;;;1.50;1.40;;;7.10;99.90;;;;;;4988914;28;20403;-73
2023/01/17 03:46:16;;;;;;;4.78;1.92;;;7.10;99.90;;;;;;4956947;28;20184;-73
2023/01/17 03:48:44;;;;;;;3.07;2.00;;;7.10;99.90;;;;;;4976607;28;20204;-74
2023/01/17 03:51:10;;;;;;;6.15;1.85;;;7.10;99.90;;;;;;4977332;28;20521;-73
2023/01/17 03:53:36;;;;;;;4.40;2.50;;;7.10;99.90;;;;;;4976464;28;20172;-73
2023/01/17 03:56:05;;;;;;;1.97;1.83;;;7.10;99.90;;;;;;4976479;28;20424;-73
2023/01/17 03:58:31;;;;;;;2.55;2.15;;;7.10;99.90;;;;;;4976231;28;20801;-73
2023/01/17 04:00:59;;;;;;;3.77;2.10;;;7.10;99.90;;;;;;4977660;28;20255;-72
2023/01/17 04:03:27;;;;;;;2.92;2.28;;;7.10;99.90;;;;;;4992308;28;20475;-73
2023/01/17 04:05:56;;;;;;;2.83;2.40;;;7.10;99.90;;;;;;4976368;28;20222;-73
2023/01/17 04:08:22;;;;;;;2.65;2.45;;;7.10;99.90;;;;;;4983195;28;20175;-73
2023/01/17 04:10:48;;;;;;;3.55;1.90;;;7.10;99.90;;;;;;4996277;28;20191;-73
2023/01/17 04:13:17;;;;;;;2.67;2.05;;;7.10;99.90;;;;;;4995508;28;20219;-73
2023/01/17 04:15:48;;;;;;;2.53;2.20;;;7.10;99.90;;;;;;4996533;28;20295;-73
2023/01/17 04:18:18;;;;;;;6.15;2.50;;;7.10;99.90;;;;;;4995382;28;20179;-73
2023/01/17 04:20:44;;;;;;;3.03;2.50;;;7.10;99.90;;;;;;4995364;28;20175;-73
2023/01/17 04:23:12;;;;;;;2.00;1.90;;;7.10;99.90;;;;;;4996499;28;20174;-73
2023/01/17 04:25:38;;;;;;;2.40;2.20;;;7.10;99.90;;;;;;4987872;28;20203;-73
2023/01/17 04:28:06;;;;;;;3.75;2.97;;;7.10;99.90;;;;;;4977243;28;20176;-73
2023/01/17 04:30:35;;;;;;;5.22;2.08;;;7.10;99.90;;;;;;4959458;28;20208;-73
2023/01/17 04:33:01;;;;;;;2.90;1.98;;;7.10;99.90;;;;;;4975701;28;20196;-73
2023/01/17 04:35:30;;;;;;;2.70;1.90;;;7.00;99.90;;;;;;4975679;28;20196;-73
2023/01/17 04:37:58;;;;;;;2.60;1.90;;;7.10;99.90;;;;;;4976741;28;20951;-73
2023/01/17 04:40:28;;;;;;;2.75;1.88;;;7.00;99.90;;;;;;4975665;28;20175;-73
2023/01/17 04:42:58;;;;;;;4.38;2.20;;;7.00;99.90;;;;;;4975642;28;20196;-73
2023/01/17 04:45:24;;;;;;;2.17;1.67;;;7.10;99.90;;;;;;4959639;28;20212;-73
2023/01/17 04:47:53;;;;;;;3.40;2.03;;;7.00;99.90;;;;;;4975549;28;20466;-73
2023/01/17 04:50:19;;;;;;;2.47;1.90;;;7.00;99.90;;;;;;4976374;28;20203;-73
2023/01/17 04:52:47;;;;;;;2.80;2.03;;;7.00;99.90;;;;;;4975432;28;20396;-73
2023/01/17 04:55:13;;;;;;;2.00;1.63;;;7.00;99.90;;;;;;4959032;28;20450;-73
2023/01/17 04:57:39;;;;;;;2.60;2.30;;;7.00;99.90;;;;;;4974997;28;20189;-73
2023/01/17 05:00:05;;;;;;;2.92;2.50;;;7.00;99.90;;;;;;4975470;28;20462;-73
2023/01/17 05:02:33;;;;;;;2.17;1.75;;;7.00;99.90;;;;;;4974991;28;20203;-73
2023/01/17 05:04:59;;;;;;;3.40;2.35;;;7.00;99.90;;;;;;4975202;28;20262;-73
2023/01/17 05:07:30;;;;;;;2.60;1.98;;;7.00;99.90;;;;;;4975133;28;20178;-73
2023/01/17 05:09:56;;;;;;;3.80;2.50;;;7.00;99.90;;;;;;4975047;28;20196;-73
2023/01/17 05:12:22;;;;;;;3.25;2.38;;;7.00;99.90;;;;;;4975000;28;20167;-73
2023/01/17 05:14:50;;;;;;;2.50;2.30;;;7.00;99.90;;;;;;4974806;28;20223;-73
2023/01/17 05:17:16;;;;;;;3.15;2.08;;;7.00;99.90;;;;;;4975054;28;20185;-73
2023/01/17 05:19:47;;;;;;;2.55;2.28;;;7.00;99.90;;;;;;4975048;28;20180;-73
2023/01/17 05:22:16;;;;;;;2.72;2.40;;;7.00;99.90;;;;;;4976101;28;20168;-73
2023/01/17 05:24:47;;;;;;;2.35;1.95;;;7.00;99.90;;;;;;4958516;28;20204;-73
2023/01/17 05:27:13;;;;;;;3.05;2.10;;;7.00;99.90;;;;;;4974529;28;20192;-73
2023/01/17 05:29:39;;;;;;;2.33;2.13;;;7.00;99.90;;;;;;4975587;28;20192;-73
2023/01/17 05:32:08;;;;;;;3.03;1.98;;;7.00;99.90;;;;;;4974597;28;20165;-73
2023/01/17 05:34:34;;;;;;;4.68;2.70;;;7.00;99.90;;;;;;4975622;28;20197;-73
2023/01/17 05:37:00;;;;;;;2.60;2.40;;;7.00;99.90;;;;;;4974630;28;20183;-73
2023/01/17 05:39:30;;;;;;;3.00;2.65;;;7.00;99.90;;;;;;4975627;28;20408;-73
2023/01/17 05:41:57;;;;;;;2.42;2.10;;;7.00;99.90;;;;;;4974267;28;20173;-73
2023/01/17 05:44:26;;;;;;;2.75;2.22;;;7.00;99.90;;;;;;4958370;28;20237;-73
2023/01/17 05:46:55;;;;;;;6.38;2.55;;;6.90;99.90;;;;;;4975522;28;20183;-73
2023/01/17 05:49:21;;;;;;;4.07;2.83;;;6.90;99.90;;;;;;4974146;28;20712;-73
2023/01/17 05:51:47;;;;;;;3.97;3.67;;;6.90;99.90;;;;;;4972272;28;20660;-73
2023/01/17 05:54:13;;;;;;;4.47;3.30;;;6.90;99.90;;;;;;4972591;28;20203;-72
2023/01/17 05:56:46;;;;;;;6.15;3.33;;;6.90;99.90;;;;;;4956197;28;20435;-73
2023/01/17 05:59:15;;;;;;;3.80;2.90;;;6.90;99.90;;;;;;4973300;28;20168;-72
2023/01/17 06:01:43;;;;;;;4.70;4.00;;;6.90;99.90;;;;;;4955975;28;20659;-72
2023/01/17 06:04:11;;;;;;;6.40;3.60;;;6.90;99.90;;;;;;4973177;28;20443;-73
2023/01/17 06:06:43;;;;;;;10.23;4.05;;;6.90;99.90;;;;;;4973621;28;20188;-73
2023/01/17 06:09:43;;;;;;;4.60;3.75;;;6.90;99.90;;;;;;4967475;28;20355;-73
2023/01/17 06:12:09;;;;;;;4.40;3.88;;;6.90;99.90;;;;;;4973907;28;20635;-73
2023/01/17 06:14:35;;;;;;;5.37;3.90;;;6.90;99.90;;;;;;4973812;28;20202;-73
2023/01/17 06:17:00;;;;;;;4.60;4.07;;;6.90;99.90;;;;;;4973917;28;20924;-73
2023/01/17 06:19:26;;;;;;;6.20;4.50;;;6.90;99.90;;;;;;4941961;28;20429;-73
2023/01/17 06:21:52;;;;;;;6.27;4.37;;;6.80;99.90;;;;;;4973882;28;20420;-73
2023/01/17 06:24:18;;;;;;;6.97;4.22;;;6.90;99.90;;;;;;4957741;28;20462;-73
2023/01/17 06:26:49;;;;;;;4.70;4.20;;;6.90;99.90;;;;;;4975256;28;20164;-73
2023/01/17 06:29:15;;;;;;;5.40;3.90;;;6.90;99.90;;;;;;4973106;28;20469;-74
2023/01/17 06:31:41;;;;;;;7.80;4.93;;;6.90;99.90;;;;;;4957404;28;20189;-73
2023/01/17 06:34:09;;;;;;;6.35;4.47;;;6.80;99.90;;;;;;4974178;28;20491;-74
2023/01/17 06:36:35;;;;;;;8.67;4.70;;;6.80;99.90;;;;;;4972865;28;20155;-77
2023/01/17 06:39:04;;;;;;;5.68;4.25;;;6.80;99.90;;;;;;4974119;28;20561;-75
2023/01/17 06:41:33;;;;;;;7.25;4.75;;;6.80;99.90;;;;;;4972628;28;20290;-72
2023/01/17 06:43:58;;;;;;;6.90;4.85;;;6.80;99.90;;;;;;4971274;28;20269;-72
2023/01/17 06:46:24;;;;;;;8.77;5.70;;;6.80;99.90;;;;;;4971942;28;20677;-72
2023/01/17 06:48:50;;;;;;;6.70;4.97;;;6.80;99.90;;;;;;4956338;28;20507;-73
2023/01/17 06:51:19;;;;;;;11.07;4.73;;;6.80;99.90;;;;;;4971979;28;20443;-73
2023/01/17 06:53:50;;;;;;;7.35;4.95;;;6.80;99.90;;;;;;4956347;28;20532;-73
2023/01/17 06:56:15;;;;;;;6.63;4.78;;;6.80;99.90;;;;;;4972716;28;20188;-73
2023/01/17 06:58:50;;;;;;;6.50;5.10;;;6.80;99.90;;;;;;4955978;28;20628;-73
2023/01/17 07:01:17;;;;;;;5.82;4.95;;;6.80;99.90;;;;;;4956231;28;20423;-73
2023/01/17 07:03:43;;;;;;;8.53;5.63;;;6.80;99.90;;;;;;4972425;28;20207;-72
2023/01/17 07:06:09;;;;;;;5.30;4.70;;;6.80;99.90;;;;;;4972103;28;20861;-72
2023/01/17 07:08:38;;;;;;;7.93;5.40;;;6.80;99.90;;;;;;4972177;28;20820;-72
2023/01/17 07:11:06;;;;;;;6.60;5.10;;;6.80;99.90;;;;;;4955259;28;20215;-73
2023/01/17 07:13:34;;;;;;;7.47;6.23;;;6.80;99.90;;;;;;4956121;28;20447;-71
2023/01/17 07:16:04;;;;;;;6.00;5.40;;;6.80;99.90;;;;;;4971896;28;20405;-72
2023/01/17 07:18:33;;;;;;;7.90;5.93;;;6.80;99.90;;;;;;4973002;28;20894;-72
2023/01/17 07:21:04;;;;;;;7.40;6.30;;;6.80;99.90;;;;;;4957384;28;20429;-72
2023/01/17 07:23:32;;;;;;;7.17;5.57;;;6.80;99.90;;;;;;4959757;28;20455;-73
2023/01/17 07:25:59;;;;;;;6.80;6.05;;;6.80;99.90;;;;;;4976465;28;20498;-73
2023/01/17 07:28:27;;;;;;;8.23;6.30;;;6.80;99.90;;;;;;4975836;28;20634;-72
2023/01/17 07:30:53;;;;;;;12.20;5.55;;;6.70;99.90;;;;;;4976739;28;20594;-72
2023/01/17 07:33:20;;;;;;;7.63;6.17;;;6.80;99.90;;;;;;4975677;28;20161;-72
2023/01/17 07:35:46;;;;;;;8.93;6.93;;;6.80;99.90;;;;;;4975610;28;20442;-72
2023/01/17 07:38:16;;;;;;;6.18;5.57;;;6.80;99.90;;;;;;4975637;28;20428;-72
2023/01/17 07:40:43;;;;;;;7.00;5.67;;;6.80;99.90;;;;;;4975484;28;20227;-72
2023/01/17 07:43:15;;;;;;;9.77;6.37;;;6.70;99.90;;;;;;4975523;28;20427;-73
2023/01/17 07:45:54;;;;;;;6.68;5.80;;;6.80;99.90;;;;;;4975287;28;20813;-74
2023/01/17 07:48:26;;;;;;;7.90;6.32;;;6.80;99.90;;;;;;4974114;28;20682;-73
2023/01/17 07:50:56;;;;;;;7.57;5.95;;;6.70;99.90;;;;;;4957188;28;20203;-73
2023/01/17 07:53:27;;;;;;;7.30;6.17;;;6.70;99.90;;;;;;4953963;28;20331;-73
2023/01/17 07:55:54;;;;;;;9.50;7.45;;;6.70;99.90;;;;;;4965783;28;20438;-73
2023/01/17 07:58:21;;;;;;;7.13;5.47;;;6.70;99.90;;;;;;4976672;28;20180;-73
2023/01/17 08:00:47;;;;;;;8.30;5.70;;;6.70;99.90;;;;;;4994081;28;20417;-73
2023/01/17 08:03:17;;;;;;;6.55;5.07;;;6.70;99.90;;;;;;4993897;28;20172;-73
2023/01/17 08:05:54;;;;;;;6.28;5.10;;;6.70;99.90;;;;;;4994465;28;20207;-73
2023/01/17 08:08:27;;;;;;;6.10;5.28;;;6.70;99.90;;;;;;4994076;28;20202;-73
2023/01/17 08:10:53;;;;;;;8.68;5.53;;;6.80;99.90;;;;;;4995478;28;20202;-73
2023/01/17 08:13:22;;;;;;;7.72;5.50;;;6.80;99.90;;;;;;4995476;28;20198;-73
2023/01/17 08:15:53;;;;;;;8.10;5.68;;;6.70;99.90;;;;;;4978040;28;20207;-73
2023/01/17 08:18:19;;;;;;;9.85;6.70;;;6.80;99.90;;;;;;4995332;28;20210;-73
2023/01/17 08:20:46;;;;;;;10.57;7.10;;;6.80;99.90;;;;;;4994053;28;20617;-73
2023/01/17 08:23:12;;;;;;;6.82;5.43;;;6.80;99.90;;;;;;4976410;28;20959;-73
2023/01/17 08:25:39;;;;;;;8.40;5.60;;;6.80;99.90;;;;;;4974562;28;20497;-73
2023/01/17 08:28:06;;;;;;;8.68;5.85;;;6.80;99.90;;;;;;4975712;28;20634;-73
2023/01/17 08:30:36;;;;;;;8.48;6.18;;;6.80;99.90;;;;;;4974334;28;20192;-73
2023/01/17 08:33:02;;;;;;;7.13;5.38;;;6.80;99.90;;;;;;4975064;28;20279;-73
2023/01/17 08:35:28;;;;;;;9.80;5.50;;;6.80;99.90;;;;;;4975572;28;20267;-73
2023/01/17 08:38:03;;;;;;;6.57;5.47;;;6.80;99.90;;;;;;4974460;28;20450;-73
2023/01/17 08:40:32;;;;;;;9.20;6.10;;;6.70;99.90;;;;;;4957814;28;20536;-73
2023/01/17 08:43:02;;;;;;;10.13;7.20;;;6.80;99.90;;;;;;4954932;29;20184;-73
2023/01/17 08:45:30;;;;;;;7.15;5.30;;;6.80;99.90;;;;;;4956087;28;20203;-73
2023/01/17 08:47:58;;;;;;;8.93;6.05;;;6.80;99.90;;;;;;4956001;28;20679;-73
2023/01/17 08:50:27;;;;;;;8.68;6.20;;;6.80;99.90;;;;;;4938786;29;20220;-73
2023/01/17 08:52:57;;;;;;;8.38;6.30;;;6.80;99.90;;;;;;4958161;28;20181;-73
2023/01/17 08:55:28;;;;;;;10.18;6.95;;;6.80;99.90;;;;;;4974288;28;20220;-73
2023/01/17 08:57:55;;;;;;;9.23;6.38;;;6.80;99.90;;;;;;4974068;28;20168;-73
2023/01/17 09:00:22;;;;;;;9.40;6.70;;;6.80;99.90;;;;;;4941538;28;20206;-73
2023/01/17 09:02:53;;;;;;;10.60;6.88;;;6.80;99.90;;;;;;4974165;28;20549;-73
2023/01/17 09:05:21;;;;;;;8.18;5.68;;;6.70;99.90;;;;;;4973841;28;20200;-73
2023/01/17 09:07:47;;;;;;;11.27;6.53;;;6.70;99.90;;;;;;4941915;28;20691;-73
2023/01/17 09:10:13;;;;;;;8.87;6.07;;;6.70;99.90;;;;;;4973721;28;20205;-73
2023/01/17 09:12:39;;;;;;;10.18;5.88;;;6.70;99.90;;;;;;4957784;28;20287;-73
2023/01/17 09:15:14;;;;;;;8.00;6.30;;;6.70;99.90;;;;;;4973865;28;20210;-73
2023/01/17 09:17:42;;;;;;;11.88;6.78;;;6.70;99.90;;;;;;4974513;28;20414;-73
2023/01/17 09:20:12;;;;;;;8.00;6.00;;;6.80;99.90;;;;;;4974547;28;20176;-73
2023/01/17 09:22:40;;;;;;;8.15;5.78;;;6.70;99.90;;;;;;4957622;28;20538;-73
2023/01/17 09:25:09;;;;;;;8.52;5.68;;;6.80;99.90;;;;;;4974707;28;20214;-73
2023/01/17 09:27:35;;;;;;;10.05;6.65;;;6.80;99.90;;;;;;4973033;28;20290;-73
2023/01/17 09:30:02;;;;;;;9.00;6.03;;;6.70;99.90;;;;;;4957395;28;20289;-73
2023/01/17 09:32:28;;;;;;;7.80;6.05;;;6.70;99.90;;;;;;4957311;28;20773;-73
2023/01/17 09:34:59;;;;;;;7.72;6.25;;;6.70;99.90;;;;;;4974403;28;20561;-73
2023/01/17 09:37:25;;;;;;;8.40;6.28;;;6.70;99.90;;;;;;4973729;28;20216;-73
2023/01/17 09:39:51;;;;;;;8.40;5.85;;;6.70;99.90;;;;;;4974417;28;20733;-73
2023/01/17 09:42:35;;;;;;;8.48;6.10;;;6.70;99.90;;;;;;4974118;28;20179;-73
2023/01/17 09:45:08;;;;;;;8.68;5.55;;;6.70;99.90;;;;;;4956605;28;20203;-73
2023/01/17 09:47:47;;;;;;;10.65;6.72;;;6.70;99.90;;;;;;4956917;28;20206;-73
2023/01/17 09:50:34;;;;;;;6.75;5.75;;;6.70;99.90;;;;;;4972968;28;20196;-73
2023/01/17 09:53:10;;;;;;;7.75;5.88;;;6.70;99.90;;;;;;4972930;28;20184;-73
2023/01/17 09:55:56;;;;;;;8.75;6.15;;;6.70;99.90;;;;;;4973009;28;20215;-73
2023/01/17 09:58:41;;;;;;;8.40;6.03;;;6.70;99.90;;;;;;4972396;28;20225;-73
2023/01/17 10:01:22;;;;;;;8.00;5.18;;;6.70;99.90;;;;;;4956801;28;20797;-73
2023/01/17 10:03:55;;;;;;;8.77;5.70;;;6.70;99.90;;;;;;4972637;28;20208;-73
2023/01/17 10:07:06;;;;;;;7.63;6.35;;;6.70;99.90;;;;;;5069250;28;20576;-72
2023/01/17 10:09:50;;;;;;;10.68;6.05;;;6.70;99.90;;;;;;5051228;28;20229;-72
2023/01/17 10:12:37;;;;;;;7.65;5.45;;;6.70;99.90;;;;;;5030238;28;20227;-72
2023/01/17 10:15:15;;;;;;;9.00;5.85;;;6.70;99.90;;;;;;5061138;28;20214;-72
2023/01/17 10:18:03;;;;;;;11.48;6.75;;;6.70;99.90;;;;;;5011883;28;20181;-73
2023/01/17 10:20:51;;;;;;;9.80;6.00;;;6.70;99.90;;;;;;5027918;28;20183;-74
2023/01/17 10:23:48;;;;;;;8.27;6.28;;;6.70;99.90;;;;;;5044362;28;20582;-74
2023/01/17 10:26:23;;;;;;;10.05;6.35;;;6.70;99.90;;;;;;5028637;28;20201;-74
2023/01/17 10:28:57;;;;;;;8.05;5.68;;;6.70;99.90;;;;;;5027916;28;20179;-74
2023/01/17 10:31:29;;;;;;;11.00;6.68;;;6.70;99.90;;;;;;5027604;28;20173;-74
2023/01/17 10:34:02;;;;;;;10.60;5.72;;;6.70;99.90;;;;;;5011383;28;20213;-74
2023/01/17 10:36:39;;;;;;;6.75;5.25;;;6.70;99.90;;;;;;5027658;28;20159;-74
2023/01/17 10:39:24;;;;;;;7.90;5.63;;;6.70;99.90;;;;;;5027705;28;20178;-74
2023/01/17 10:42:13;;;;;;;7.53;5.90;;;6.70;99.90;;;;;;5035292;28;20258;-74
2023/01/17 10:44:48;;;;;;;8.20;5.78;;;6.70;99.90;;;;;;5047306;28;20212;-72
2023/01/17 10:47:18;;;;;;;7.75;5.90;;;6.70;99.90;;;;;;5048516;28;20200;-72
2023/01/17 10:49:56;;;;;;;11.80;5.30;;;6.70;99.90;;;;;;5047573;28;20185;-72
2023/01/17 10:52:30;;;;;;;7.10;5.55;;;6.70;99.90;;;;;;5047200;28;20263;-72
2023/01/17 10:55:38;;;;;;;10.27;6.03;;;6.70;99.90;;;;;;5047225;28;20232;-72
2023/01/17 10:58:07;;;;;;;7.30;5.35;;;6.70;99.90;;;;;;5041658;28;20280;-72
2023/01/17 11:00:56;;;;;;;7.43;5.63;;;6.70;99.90;;;;;;5047092;28;20188;-72
2023/01/17 11:03:23;;;;;;;8.00;5.75;;;6.70;99.90;;;;;;5026521;28;20238;-72
2023/01/17 11:06:16;;;;;;;8.07;5.45;;;6.70;99.90;;;;;;5043520;28;20212;-72
2023/01/17 11:08:56;;;;;;;6.97;4.90;;;6.70;99.90;;;;;;5026973;28;20174;-72
2023/01/17 11:11:29;;;;;;;8.63;5.78;;;6.70;99.90;;;;;;5027011;28;20535;-74
2023/01/17 11:14:04;;;;;;;9.75;5.57;;;6.70;99.90;;;;;;5043643;28;20317;-74
2023/01/17 11:16:31;;;;;;;7.13;4.70;;;6.70;99.90;;;;;;5021276;28;20159;-74
2023/01/17 11:19:12;;;;;;;9.05;5.70;;;6.70;99.90;;;;;;5032908;28;20194;-74
2023/01/17 11:21:39;;;;;;;8.45;4.95;;;6.70;99.90;;;;;;5017028;28;20209;-74
2023/01/17 11:24:15;;;;;;;8.00;4.63;;;6.70;99.90;;;;;;5032596;28;20201;-74
2023/01/17 11:26:48;;;;;;;11.63;5.85;;;6.70;99.90;;;;;;5016979;28;20202;-74
2023/01/17 11:29:37;;;;;;;10.68;5.68;;;6.70;99.90;;;;;;5034404;28;20168;-74
2023/01/17 11:32:28;;;;;;;7.13;4.78;;;6.70;99.90;;;;;;5017177;28;20264;-72
2023/01/17 11:35:14;;;;;;;8.68;5.07;;;6.70;99.90;;;;;;5033272;28;20209;-72
2023/01/17 11:37:49;;;;;;;8.90;5.55;;;6.80;99.90;;;;;;5016651;28;20231;-72
2023/01/17 11:40:27;;;;;;;8.73;6.20;;;6.80;99.90;;;;;;5033290;28;20191;-74
2023/01/17 11:43:26;;;;;;;6.97;5.10;;;6.80;99.90;;;;;;5033518;28;20199;-72
2023/01/17 11:46:20;;;;;;;5.63;4.47;;;6.80;99.90;;;;;;5027507;28;20482;-72
2023/01/17 11:48:54;;;;;;;7.53;4.68;;;6.80;99.90;;;;;;5015953;28;20681;-72
2023/01/17 11:51:40;;;;;;;9.60;5.45;;;6.80;99.90;;;;;;5016372;28;20247;-72
2023/01/17 11:54:25;;;;;;;7.65;4.78;;;6.80;99.90;;;;;;5032654;28;20249;-72
2023/01/17 11:56:57;;;;;;;7.88;4.68;;;6.80;99.90;;;;;;5033176;28;20213;-72
2023/01/17 11:59:32;;;;;;;12.43;5.45;;;6.80;99.90;;;;;;5016452;28;20200;-72
2023/01/17 12:02:19;;;;;;;6.50;5.05;;;6.80;99.90;;;;;;5016483;28;20193;-72
2023/01/17 12:05:00;;;;;;;6.50;5.17;;;6.80;99.90;;;;;;5032479;28;20267;-72
2023/01/17 12:08:11;;;;;;;7.57;5.10;;;6.80;99.90;;;;;;5032562;28;20407;-72
2023/01/17 12:11:18;;;;;;;7.53;4.35;;;6.80;99.90;;;;;;5055496;28;20222;-72
2023/01/17 12:14:22;;;;;;;6.97;4.45;;;6.80;99.90;;;;;;5029290;28;20671;-74
2023/01/17 12:17:04;;;;;;;5.87;4.83;;;6.80;99.90;;;;;;5032617;28;20162;-74
2023/01/17 12:19:40;;;;;;;6.30;4.80;;;6.80;99.90;;;;;;5032318;28;20451;-74
2023/01/17 12:22:33;;;;;;;6.80;4.80;;;6.80;99.90;;;;;;5016000;28;20244;-74
2023/01/17 12:25:31;;;;;;;6.57;4.80;;;6.80;99.90;;;;;;5002739;28;20312;-74
2023/01/17 12:28:30;;;;;;;8.57;4.38;;;6.80;99.90;;;;;;5011466;28;20473;-74
2023/01/17 12:30:59;;;;;;;6.25;4.20;;;6.90;99.90;;;;;;5015537;28;20266;-74
2023/01/17 12:33:44;;;;;;;6.57;4.13;;;6.90;99.90;;;;;;5028741;28;20198;-74
2023/01/17 12:36:16;;;;;;;8.73;4.60;;;6.90;99.90;;;;;;5012451;28;20423;-74
2023/01/17 12:38:47;;;;;;;6.10;4.05;;;6.90;99.90;;;;;;5012336;28;20420;-74
2023/01/17 12:41:17;;;;;;;6.35;4.10;;;6.90;99.90;;;;;;5030056;28;20201;-72
2023/01/17 12:43:44;;;;;;;7.45;4.63;;;6.90;99.90;;;;;;5033061;28;20217;-72
2023/01/17 12:46:23;;;;;;;9.13;4.65;;;6.90;99.90;;;;;;5031531;28;20210;-74
2023/01/17 12:48:54;;;;;;;6.85;4.18;;;6.90;99.90;;;;;;5013158;28;20241;-74
2023/01/17 12:51:28;;;;;;;7.20;4.20;;;6.90;99.90;;;;;;5011935;28;20621;-74
2023/01/17 12:53:54;;;;;;;6.45;4.40;;;6.90;99.90;;;;;;5044991;28;20684;-74
2023/01/17 12:56:35;;;;;;;7.63;4.30;;;6.90;99.90;;;;;;5026504;28;20209;-74
2023/01/17 12:59:33;;;;;;;4.57;3.37;;;6.90;99.90;;;;;;4995476;28;20300;-72
2023/01/17 13:02:02;;;;;;;7.38;4.30;;;6.90;99.90;;;;;;5011727;28;20405;-74
2023/01/17 13:04:37;;;;;;;5.88;4.20;;;6.90;99.90;;;;;;5012007;28;20223;-74
2023/01/17 13:07:10;;;;;;;9.10;4.75;;;6.90;99.90;;;;;;5011697;28;20171;-74
2023/01/17 13:09:44;;;;;;;9.93;3.95;;;6.90;99.90;;;;;;5011494;28;20245;-74
2023/01/17 13:12:18;;;;;;;6.22;3.63;;;6.90;99.90;;;;;;5016650;28;20649;-74
2023/01/17 13:14:45;;;;;;;8.80;4.50;;;6.90;99.90;;;;;;5031363;28;20236;-74
2023/01/17 13:17:23;;;;;;;6.00;3.80;;;6.90;99.90;;;;;;5031469;28;20190;-74
2023/01/17 13:19:59;;;;;;;7.72;3.63;;;6.90;99.90;;;;;;5031234;28;20170;-74
2023/01/17 13:22:30;;;;;;;6.68;3.50;;;6.90;99.90;;;;;;5031316;28;20186;-74
2023/01/17 13:25:11;;;;;;;6.60;3.60;;;6.90;99.90;;;;;;5037737;28;20705;-74
2023/01/17 13:28:00;;;;;;;5.70;3.33;;;6.90;99.90;;;;;;5052234;28;20397;-74
2023/01/17 13:31:03;;;;;;;8.98;3.72;;;6.90;99.90;;;;;;5051035;28;20198;-74
2023/01/17 13:34:06;;;;;;;3.85;2.90;;;6.90;99.90;;;;;;5052119;28;20169;-74
2023/01/17 13:36:41;;;;;;;5.47;3.40;;;6.90;99.90;;;;;;5050921;28;20205;-74
2023/01/17 13:39:36;;;;;;;6.70;3.45;;;6.90;99.90;;;;;;5050561;28;20159;-74
2023/01/17 13:42:10;;;;;;;11.55;3.58;;;6.90;99.90;;;;;;5043928;28;20232;-73
2023/01/17 13:44:36;;;;;;;5.10;3.42;;;6.90;99.90;;;;;;5030896;28;20209;-73
2023/01/17 13:47:06;;;;;;;6.95;3.53;;;6.90;99.90;;;;;;5031088;28;20212;-73
2023/01/17 13:49:50;;;;;;;4.65;2.92;;;6.90;99.90;;;;;;5030972;28;20195;-73
2023/01/17 13:52:19;;;;;;;4.82;3.00;;;6.90;99.90;;;;;;5047600;28;20176;-73
2023/01/17 13:54:53;;;;;;;4.82;2.70;;;6.90;99.90;;;;;;5047444;28;20209;-73
2023/01/17 13:57:24;;;;;;;4.20;2.60;;;6.90;99.90;;;;;;5031931;28;20169;-73
2023/01/17 13:59:55;;;;;;;6.45;3.15;;;6.90;99.90;;;;;;5012078;28;20414;-73
2023/01/17 14:02:30;;;;;;;5.63;2.80;;;6.90;99.90;;;;;;5012476;28;20167;-73
2023/01/17 14:05:09;;;;;;;4.20;2.50;;;7.00;99.90;;;;;;5027525;28;20699;-73
2023/01/17 14:08:03;;;;;;;3.97;2.88;;;7.00;99.90;;;;;;5012176;28;20663;-73
2023/01/17 14:10:37;;;;;;;4.18;2.80;;;7.00;99.90;;;;;;5010831;28;20689;-73
2023/01/17 14:13:05;;;;;;;6.40;2.90;;;7.00;99.90;;;;;;5038851;28;20196;-73
2023/01/17 14:15:48;;;;;;;5.55;3.00;;;7.00;99.90;;;;;;5010947;28;20666;-73
2023/01/17 14:18:32;;;;;;;3.88;2.35;;;7.00;99.90;;;;;;5043958;28;20173;-73
2023/01/17 14:21:26;;;;;;;5.50;2.70;;;7.00;99.90;;;;;;5010968;28;20617;-73
2023/01/17 14:24:19;;;;;;;3.72;3.00;;;7.00;99.90;;;;;;5008537;28;20226;-73
2023/01/17 14:26:57;;;;;;;6.80;2.43;;;7.00;99.90;;;;;;5011647;28;20202;-73
2023/01/17 14:29:41;;;;;;;2.90;2.30;;;7.00;99.90;;;;;;5011029;28;21045;-73
2023/01/17 14:32:17;;;;;;;6.63;3.05;;;7.00;99.90;;;;;;5006344;28;20469;-73
2023/01/17 14:34:50;;;;;;;4.20;2.50;;;7.00;99.90;;;;;;5026847;28;20201;-73
2023/01/17 14:37:30;;;;;;;7.97;2.40;;;7.00;99.90;;;;;;5012019;28;20246;-73
2023/01/17 14:39:57;;;;;;;5.82;2.38;;;7.00;99.90;;;;;;5010757;28;20162;-73
2023/01/17 14:42:26;;;;;;;4.78;2.40;;;7.00;99.90;;;;;;5002604;28;20779;-73
2023/01/17 14:45:08;;;;;;;4.72;2.42;;;7.00;99.90;;;;;;5013970;28;20250;-73
2023/01/17 14:47:38;;;;;;;5.28;2.33;;;6.90;99.90;;;;;;5031556;28;20158;-73
2023/01/17 14:50:23;;;;;;;3.55;2.17;;;7.00;99.90;;;;;;5031585;28;20175;-74